地図

経路データ

SID SEASON NUMBER BASIN SUBBASIN NAME ISO_TIME NATURE LAT LON WMO_WIND WMO_PRES WMO_AGENCY TRACK_TYPE DIST2LAND LANDFALL IFLAG USA_AGENCY USA_ATCF_ID USA_LAT USA_LON USA_RECORD USA_STATUS USA_WIND USA_PRES USA_SSHS USA_R34_NE USA_R34_SE USA_R34_SW USA_R34_NW USA_R50_NE USA_R50_SE USA_R50_SW USA_R50_NW USA_R64_NE USA_R64_SE USA_R64_SW USA_R64_NW USA_POCI USA_ROCI USA_RMW USA_EYE TOKYO_LAT TOKYO_LON TOKYO_GRADE TOKYO_WIND TOKYO_PRES TOKYO_R50_DIR TOKYO_R50_LONG TOKYO_R50_SHORT TOKYO_R30_DIR TOKYO_R30_LONG TOKYO_R30_SHORT TOKYO_LAND CMA_LAT CMA_LON CMA_CAT CMA_WIND CMA_PRES HKO_LAT HKO_LON HKO_CAT HKO_WIND HKO_PRES NEWDELHI_LAT NEWDELHI_LON NEWDELHI_GRADE NEWDELHI_WIND NEWDELHI_PRES NEWDELHI_CI NEWDELHI_DP NEWDELHI_POCI REUNION_LAT REUNION_LON REUNION_TYPE REUNION_WIND REUNION_PRES REUNION_TNUM REUNION_CI REUNION_RMW REUNION_R34_NE REUNION_R34_SE REUNION_R34_SW REUNION_R34_NW REUNION_R50_NE REUNION_R50_SE REUNION_R50_SW REUNION_R50_NW REUNION_R64_NE REUNION_R64_SE REUNION_R64_SW REUNION_R64_NW BOM_LAT BOM_LON BOM_TYPE BOM_WIND BOM_PRES BOM_TNUM BOM_CI BOM_RMW BOM_R34_NE BOM_R34_SE BOM_R34_SW BOM_R34_NW BOM_R50_NE BOM_R50_SE BOM_R50_SW BOM_R50_NW BOM_R64_NE BOM_R64_SE BOM_R64_SW BOM_R64_NW BOM_ROCI BOM_POCI BOM_EYE BOM_POS_METHOD BOM_PRES_METHOD NADI_LAT NADI_LON NADI_CAT NADI_WIND NADI_PRES WELLINGTON_LAT WELLINGTON_LON WELLINGTON_WIND WELLINGTON_PRES DS824_LAT DS824_LON DS824_STAGE DS824_WIND DS824_PRES TD9636_LAT TD9636_LON TD9636_STAGE TD9636_WIND TD9636_PRES TD9635_LAT TD9635_LON TD9635_WIND TD9635_PRES TD9635_ROCI NEUMANN_LAT NEUMANN_LON NEUMANN_CLASS NEUMANN_WIND NEUMANN_PRES MLC_LAT MLC_LON MLC_CLASS MLC_WIND MLC_PRES USA_GUST BOM_GUST BOM_GUST_PER REUNION_GUST REUNION_GUST_PER USA_SEAHGT USA_SEARAD_NE USA_SEARAD_SE USA_SEARAD_SW USA_SEARAD_NW STORM_SPEED STORM_DIR
1978226N09162 1978 67 WP MM NOT_NAMED 1978-08-14 00:00:00 TS 9.00000 162.200 main 1782 1770 O________OO___ jtwc_wp WP131978 9.00000 162.200 10 -1 9.00000 162.200 TC 10 9.00000 162.200 1 10 17 303
1978226N09162 1978 67 WP MM NOT_NAMED 1978-08-14 03:00:00 TS 9.44798 161.497 main 1770 1765 P________PP___ WP131978 9.45034 161.483 10 -1 9.45034 161.483 TC 10 9.44328 161.526 1 10 16 303
1978226N09162 1978 67 WP MM NOT_NAMED 1978-08-14 06:00:00 TS 9.89625 160.820 main 1771 1765 O________OP___ jtwc_wp WP131978 9.90000 160.800 10 -1 9.90000 160.800 TC 10 9.88875 160.861 1 10 16 305
1978226N09162 1978 67 WP MM NOT_NAMED 1978-08-14 09:00:00 TS 10.3465 160.190 main 1774 1774 P________PP___ WP131978 10.3498 160.177 10 -1 10.3498 160.177 TC 10 10.3398 160.216 1 10 15 307
1978226N09162 1978 67 WP MM NOT_NAMED 1978-08-14 12:00:00 TS 10.8000 159.600 main 1787 1786 O________OO___ jtwc_wp WP131978 10.8000 159.600 10 -1 10.8000 159.600 TC 10 10.8000 159.600 1 10 15 308
1978226N09162 1978 67 WP MM NOT_NAMED 1978-08-14 15:00:00 TS 11.2521 159.031 main 1804 1799 P________PP___ WP131978 11.2424 159.035 10 -1 11.2424 159.035 TC 10 11.2714 159.022 1 10 14 310
1978226N09162 1978 67 WP MM NOT_NAMED 1978-08-14 18:00:00 TS 11.7165 158.494 main 1819 1819 O________OP___ jtwc_wp WP131978 11.7000 158.500 10 -1 11.7000 158.500 TC 10 11.7495 158.482 1 10 14 313
1978226N09162 1978 67 WP MM NOT_NAMED 1978-08-14 21:00:00 TS 12.2092 157.977 main 1844 1840 P________PP___ WP131978 12.1999 157.977 10 -1 12.1999 157.977 TC 10 12.2278 157.976 1 10 14 315
1978226N09162 1978 67 WP MM NOT_NAMED 1978-08-15 00:00:00 TS 12.7000 157.500 main 1873 1873 O________OO___ jtwc_wp WP131978 12.7000 157.500 10 -1 12.7000 157.500 TC 10 12.7000 157.500 1 10 13 317
1978226N09162 1978 67 WP MM NOT_NAMED 1978-08-15 03:00:00 TS 13.1598 157.078 main 1908 1904 P________PP___ WP131978 13.1573 157.092 10 -1 13.1573 157.092 TC 10 13.1648 157.050 1 10 12 318
1978226N09162 1978 67 WP MM NOT_NAMED 1978-08-15 06:00:00 TS 13.6073 156.676 main 1935 1935 O________OP___ jtwc_wp WP131978 13.6000 156.700 10 -1 13.6000 156.700 TC 10 13.6218 156.627 1 10 12 318
1978226N09162 1978 67 WP MM NOT_NAMED 1978-08-15 09:00:00 TS 14.0609 156.243 main 1970 1970 P________PP___ WP131978 14.0575 156.257 10 -1 14.0575 156.257 TC 10 14.0679 156.215 1 10 12 316
1978226N09162 1978 67 WP MM NOT_NAMED 1978-08-15 12:00:00 TS 14.5000 155.800 main 2001 2001 O________OO___ jtwc_wp WP131978 14.5000 155.800 10 -1 14.5000 155.800 TC 10 14.5000 155.800 1 10 12 314
1978226N09162 1978 67 WP MM NOT_NAMED 1978-08-15 15:00:00 TS 14.9083 155.352 main 2033 2030 P________PP___ WP131978 14.9074 155.350 10 -1 14.9074 155.350 TC 10 14.9101 155.357 1 11 12 313
1978226N09162 1978 67 WP MM NOT_NAMED 1978-08-15 18:00:00 TS 15.3024 154.902 main 2064 2064 O________OP___ jtwc_wp WP131978 15.3000 154.900 10 -1 15.3000 154.900 TC 10 15.3072 154.907 1 12 12 312
1978226N09162 1978 67 WP MM NOT_NAMED 1978-08-15 21:00:00 TS 15.7002 154.451 main 2098 2096 P________PP___ WP131978 15.6999 154.450 12 -1 15.6999 154.450 TC 12 15.7007 154.453 1 13 12 313
1978226N09162 1978 67 WP MM NOT_NAMED 1978-08-16 00:00:00 TS 16.1000 154.000 main 2133 2131 O________OO___ jtwc_wp WP131978 16.1000 154.000 15 -1 16.1000 154.000 TC 15 16.1000 154.000 1 15 12 313
1978226N09162 1978 67 WP MM NOT_NAMED 1978-08-16 03:00:00 TS 16.5022 153.546 main 2169 2169 P________PP___ WP131978 16.4924 153.550 15 -1 16.4924 153.550 TC 15 16.5217 153.538 1 13 12 313
1978226N09162 1978 67 WP MM NOT_NAMED 1978-08-16 06:00:00 TS 16.9166 153.092 main 2208 2208 O________OP___ jtwc_wp WP131978 16.9000 153.100 15 -1 16.9000 153.100 TC 15 16.9499 153.077 1 12 12 315
1978226N09162 1978 67 WP MM NOT_NAMED 1978-08-16 09:00:00 TS 17.3593 152.638 main 2257 2257 P________PP___ WP131978 17.3499 152.642 12 -1 17.3499 152.642 TC 12 17.3780 152.628 1 11 12 316
1978226N09162 1978 67 WP MM NOT_NAMED 1978-08-16 12:00:00 TS 17.8000 152.200 main 2264 2204 O________OO___ jtwc_wp WP131978 17.8000 152.200 10 -1 17.8000 152.200 TC 10 17.8000 152.200 1 10 12 316
1978226N09162 1978 67 WP MM NOT_NAMED 1978-08-16 15:00:00 TS 18.2127 151.781 main 2204 2144 P________PP___ WP131978 18.2074 151.785 10 -1 18.2074 151.785 TC 10 18.2233 151.775 1 10 11 317
1978226N09162 1978 67 WP MM NOT_NAMED 1978-08-16 18:00:00 TS 18.6125 151.392 main 2144 2084 O________OP___ jtwc_wp WP131978 18.6000 151.400 10 -1 18.6000 151.400 TC 10 18.6374 151.375 1 10 11 318
1978226N09162 1978 67 WP MM NOT_NAMED 1978-08-16 21:00:00 TS 19.0209 151.018 main 2084 2030 P________PP___ WP131978 19.0150 151.020 10 -1 19.0150 151.020 TC 10 19.0328 151.013 1 10 10 320
1978226N09162 1978 67 WP MM NOT_NAMED 1978-08-17 00:00:00 TS 19.4000 150.700 main 2030 1990 O________OO___ jtwc_wp WP131978 19.4000 150.700 10 -1 19.4000 150.700 TC 10 19.4000 150.700 1 10 9 324
1978226N09162 1978 67 WP MM NOT_NAMED 1978-08-17 03:00:00 TS 19.7180 150.470 main 1990 1951 P________PP___ WP131978 19.7149 150.477 10 -1 19.7149 150.477 TC 10 19.7241 150.457 1 11 7 327
1978226N09162 1978 67 WP MM NOT_NAMED 1978-08-17 06:00:00 TS 20.0073 150.287 main 1951 1911 O________OP___ jtwc_wp WP131978 20.0000 150.300 10 -1 20.0000 150.300 TC 10 20.0218 150.261 1 12 7 329
1978226N09162 1978 67 WP MM NOT_NAMED 1978-08-17 09:00:00 TS 20.3029 150.095 main 1911 1872 P________PP___ WP131978 20.3000 150.100 12 -1 20.3000 150.100 TC 12 20.3086 150.085 1 13 7 329
1978226N09162 1978 67 WP MM NOT_NAMED 1978-08-17 12:00:00 TS 20.6000 149.900 main 1872 1832 O________OO___ jtwc_wp WP131978 20.6000 149.900 15 -1 20.6000 149.900 TC 15 20.6000 149.900 1 15 7 330
1978226N09162 1978 67 WP MM NOT_NAMED 1978-08-17 15:00:00 TS 20.8908 149.731 main 1832 1793 P________PP___ WP131978 20.8924 149.715 15 -1 20.8924 149.715 TC 15 20.8876 149.763 1 15 7 330
1978226N09162 1978 67 WP MM NOT_NAMED 1978-08-17 18:00:00 TS 21.1956 149.533 main 1793 1754 O________OP___ jtwc_wp WP131978 21.2000 149.500 15 -1 21.2000 149.500 TC 15 21.1869 149.598 1 15 8 327
1978226N09162 1978 67 WP MM NOT_NAMED 1978-08-17 21:00:00 TS 21.5190 149.294 main 1754 1699 P________PP___ WP131978 21.5195 149.274 15 -1 21.5195 149.274 TC 15 21.5179 149.334 1 15 9 322
1978226N09162 1978 67 WP MM NOT_NAMED 1978-08-18 00:00:00 TS 21.8867 148.947 1008 tokyo main 1694 1625 OOOO_____OO___ jtwc_wp WP131978 21.9000 148.900 15 -1 22.0000 149.000 2 1008 0 0 0 21.8000 149.000 0 19 1006 21.7000 149.400 TD 25 1008 21.9000 148.900 TC 15 21.9000 148.900 1 15 13 311
1978226N09162 1978 67 WP MM NOT_NAMED 1978-08-18 03:00:00 TS 22.3654 148.241 main 1611 1523 PPPP_____PP___ WP131978 22.3770 148.312 15 -1 22.4937 148.004 2 1007 0 0 22.3007 148.084 0 19 1006 22.2613 148.354 TD 25 1007 22.3770 148.312 TC 15 22.3626 148.238 1 16 18 304
1978226N09162 1978 67 WP MM NOT_NAMED 1978-08-18 06:00:00 TS 22.8801 147.324 1006 tokyo main 1519 1424 OOOO_____OP___ jtwc_wp WP131978 22.9000 147.500 15 -1 23.0000 147.000 2 1006 0 0 0 22.8000 147.100 0 19 1006 22.8000 147.300 TD 25 1006 22.9000 147.500 TC 15 22.8707 147.399 1 17 21 300
1978226N09162 1978 67 WP MM NOT_NAMED 1978-08-18 09:00:00 TS 23.3920 146.284 main 1424 1333 PPPP_____PP___ WP131978 23.4151 146.510 17 -1 23.5220 145.992 2 1005 0 0 23.2998 146.014 0 24 1005 23.3069 146.242 TD 25 1005 23.4151 146.510 TC 17 23.3932 146.434 1 18 22 297
1978226N09162 1978 67 WP MM NOT_NAMED 1978-08-18 12:00:00 TS 23.8833 145.217 1004 tokyo main 1329 1253 OOOO_____OO___ jtwc_wp WP131978 23.9000 145.400 20 -1 24.0000 145.000 2 1004 0 0 0 23.8000 144.900 1 29 1004 23.8000 145.200 TD 25 1004 23.9000 145.400 TC 20 23.9000 145.400 1 20 21 296
1978226N09162 1978 67 WP MM NOT_NAMED 1978-08-18 15:00:00 TS 24.3173 144.167 main 1253 1181 PPPP_____PP___ WP131978 24.3070 144.299 22 -1 24.3568 144.041 2 1003 0 0 24.3072 143.812 1 29 1003 24.3065 144.199 TD 25 1003 24.3070 144.299 TC 22 24.3191 144.351 1 22 21 294
1978226N09162 1978 67 WP MM NOT_NAMED 1978-08-18 18:00:00 TS 24.7369 143.126 1002 tokyo main 1179 1109 OOOO_____OP___ jtwc_wp WP131978 24.7000 143.200 25 -1 24.7000 143.100 2 1002 0 0 0 24.8000 142.800 1 29 1002 24.8000 143.200 TD 25 1002 24.7000 143.200 TC 25 24.7215 143.253 1 25 21 295
1978226N09162 1978 67 WP MM NOT_NAMED 1978-08-18 21:00:00 TS 25.1744 142.112 main 1095 1014 PPPP_____PP___ WP131978 25.1269 142.127 27 -1 25.1340 142.172 2 1000 0 0 25.2487 141.934 1 29 1001 25.2719 142.157 TD 27 1001 25.1269 142.127 TC 27 25.1379 142.154 1 27 20 296
1978226N09162 1978 67 WP MM NOT_NAMED 1978-08-19 00:00:00 TS 25.6333 141.117 40 998 tokyo main 1009 918 OOOO_____OO___ jtwc_wp WP131978 25.6000 141.100 30 -1 25.6000 141.200 3 40 998 0 9 75 75 0 25.7000 141.100 1 29 1000 25.7000 141.100 TD 30 1000 25.6000 141.100 TC 30 25.6000 141.100 1 30 20 297
1978226N09162 1978 67 WP MM NOT_NAMED 1978-08-19 03:00:00 TS 26.1097 140.106 main 913 826 PPPP_____PP___ WP131978 26.1194 140.119 30 -1 26.0282 140.070 3 40 998 0 9 75 75 26.2147 140.165 1 33 999 26.0491 140.056 TD 30 999 26.1194 140.119 TC 30 26.1278 140.104 1 30 20 299
1978226N09162 1978 67 WP MM NOT_NAMED 1978-08-19 06:00:00 TS 26.6181 139.127 40 998 tokyo main 822 742 OOOO_____OP___ jtwc_wp WP131978 26.7000 139.200 30 -1 26.5000 139.000 3 40 998 0 9 75 75 0 26.7000 139.200 2 38 998 26.4000 139.000 TD 30 998 26.7000 139.200 TC 30 26.7085 139.164 1 30 20 301
1978226N09162 1978 67 WP MM NOT_NAMED 1978-08-19 09:00:00 TS 27.1371 138.201 main 739 654 PPPP_____PP___ WP131978 27.3271 138.312 30 -1 27.0534 138.211 3 40 998 0 9 67 67 26.9974 138.217 2 38 998 26.7828 137.861 TD 30 998 27.3271 138.312 TC 30 27.3348 138.292 1 30 19 305
1978226N09162 1978 67 WP MM NOT_NAMED 1978-08-19 12:00:00 TS 27.7333 137.350 40 998 tokyo main 651 563 OOOO_____OO___ jtwc_wp WP131978 28.0000 137.500 30 -1 27.7000 137.500 3 40 998 0 9 60 60 0 27.4000 137.300 2 38 998 27.3000 136.800 TD 30 998 28.0000 137.500 TC 30 28.0000 137.500 1 30 20 311
1978226N09162 1978 67 WP MM NOT_NAMED 1978-08-19 15:00:00 TS 28.4408 136.531 main 561 468 PPPP_____PP___ WP131978 28.6846 136.754 30 -1 28.4058 136.598 3 40 998 0 9 60 60 28.1746 136.483 2 38 998 28.0397 135.881 TD 30 999 28.6846 136.754 TC 30 28.6555 136.715 1 30 20 318
1978226N09162 1978 67 WP MM NOT_NAMED 1978-08-19 18:00:00 TS 29.2253 135.836 40 998 tokyo main 468 371 OOOO_____OP___ jtwc_wp WP131978 29.4000 136.100 30 -1 29.2000 135.800 3 40 998 0 9 60 60 0 29.1000 135.800 2 38 998 28.9000 135.200 TD 30 1000 29.4000 136.100 TC 30 29.3517 136.019 1 30 19 325
1978226N09162 1978 67 WP MM NOT_NAMED 1978-08-19 21:00:00 TS 30.0150 135.289 main 371 275 PPPP_____PP___ WP131978 30.1274 135.482 30 -1 30.0841 135.316 3 40 998 0 9 60 60 29.9421 135.224 2 38 998 29.7118 134.794 TD 27 1002 30.1274 135.482 TC 30 30.0969 135.438 1 30 18 334
1978226N09162 1978 67 WP MM NOT_NAMED 1978-08-20 00:00:00 TS 30.8609 134.913 40 998 tokyo main 264 171 OOOO_____OO___ jtwc_wp WP131978 30.9000 135.000 30 -1 31.0000 135.000 3 40 998 0 9 60 60 0 30.8000 134.800 2 38 998 30.6000 134.600 TD 25 1004 30.9000 135.000 TC 30 30.9000 135.000 1 30 18 341
1978226N09162 1978 67 WP MM NOT_NAMED 1978-08-20 03:00:00 TS 31.7275 134.606 main 171 72 PPPP_____PP___ WP131978 31.7122 134.667 27 -1 31.8200 134.604 3 40 998 0 9 60 60 31.6847 134.431 2 33 1001 31.6128 134.486 TD 25 1004 31.7122 134.667 TC 27 31.7656 134.722 1 27 18 347
1978226N09162 1978 67 WP MM NOT_NAMED 1978-08-20 06:00:00 TS 32.6439 134.448 40 998 tokyo main 69 18 OOOO_____OP___ jtwc_wp WP131978 32.6000 134.500 25 -1 32.7000 134.400 3 40 998 0 9 60 60 0 32.6000 134.300 1 29 1004 32.7000 134.400 TD 25 1004 32.6000 134.500 TC 25 32.6820 134.574 1 25 19 357
1978226N09162 1978 67 WP MM NOT_NAMED 1978-08-20 09:00:00 TS 33.5968 134.499 main 11 0 PPP______PP___ WP131978 33.5751 134.465 22 -1 33.6276 134.525 3 1003 0 9 33.5430 134.499 1 1006 TD 33.5751 134.465 TC 22 33.6326 134.515 1 22 21 7
1978226N09162 1978 67 WP MM NOT_NAMED 1978-08-20 12:00:00 TS 34.7375 134.750 1008 tokyo main 0 0 OOO______OO___ jtwc_wp WP131978 34.6000 134.500 20 -1 34.9000 134.900 2 1008 0 0 0 34.5000 134.900 0 1008 34.6000 134.500 TC 20 34.6000 134.500 1 20 33 11
1978226N09162 1978 67 WP MM NOT_NAMED 1978-08-20 15:00:00 TS 36.8375 135.269 main 90 90 _P____________ WP131978 -1 36.8375 135.269 2 1007 0 0 0 TC 1 43 14
1978226N09162 1978 67 WP MM NOT_NAMED 1978-08-20 18:00:00 TS 38.9000 136.000 1006 tokyo main 181 181 _O____________ -1 38.9000 136.000 2 1006 0 0 0 1 42 22
1978226N09162 1978 67 WP MM NOT_NAMED 1978-08-20 21:00:00 TS 40.7658 137.262 main 219 86 _P____________ -1 40.7658 137.262 2 1006 0 0 1 38 37
1978226N09162 1978 67 WP MM NOT_NAMED 1978-08-21 00:00:00 TS 41.9000 139.000 1006 tokyo main 79 0 _O____________ -1 41.9000 139.000 2 1006 0 0 0 30 69
1978226N09162 1978 67 WP MM NOT_NAMED 1978-08-21 03:00:00 TS 41.8223 140.977 main 0 0 _P____________ -1 41.8223 140.977 2 1005 0 0 31 107
1978226N09162 1978 67 WP MM NOT_NAMED 1978-08-21 06:00:00 TS 41.0000 143.000 1004 tokyo main 101 _O____________ -1 41.0000 143.000 2 1004 0 0 0 35 118

デジタル台風データ・検索

IBTrACS Databaseについて

本データベースは、米国NOAAが公開する1842年以降の世界の熱帯低気圧のベストトラックデータアーカイブInternational Best Track Archive for Climate Stewardship (IBTrACS)を、ウェブで閲覧しやすい形式に変換したものです。

最終更新日:2021-10-08